Time,TemperatureF,DewpointF,PressureIn,WindDirection,WindDirectionDegrees,WindSpeedMPH,WindSpeedGustMPH,Humidity,HourlyPrecipIn,Conditions,Clouds,dailyrainin,SoftwareType,DateUTC
2013-10-21 00:04:00,42.0,40.0,-100.00,West,260,8.0,20.0,94,-99.99,,,-99.99,,2013-10-21 05:04:00,
2013-10-21 00:10:00,39.0,37.0,-100.00,West,260,13.0,23.0,94,-99.99,,,-99.99,,2013-10-21 05:10:00,
2013-10-21 00:43:00,39.0,37.0,-100.00,West,260,13.0,23.0,94,-99.99,,,-99.99,,2013-10-21 05:43:00,
2013-10-21 00:52:00,39.0,37.0,-100.00,West,260,13.0,23.0,94,-99.99,,,-99.99,,2013-10-21 05:52:00,
2013-10-21 01:02:00,39.0,37.0,-100.00,West,260,13.0,23.0,94,-99.99,,,-99.99,,2013-10-21 06:02:00,
2013-10-21 01:10:00,38.0,34.0,-100.00,West,265,6.0,18.0,87,-99.99,,,-99.99,,2013-10-21 06:10:00,
2013-10-21 01:42:00,38.0,34.0,-100.00,West,265,6.0,18.0,87,-99.99,,,-99.99,,2013-10-21 06:42:00,
2013-10-21 01:52:00,38.0,34.0,-100.00,West,265,6.0,18.0,87,-99.99,,,-99.99,,2013-10-21 06:52:00,
2013-10-21 02:02:00,38.0,34.0,-100.00,West,265,6.0,18.0,87,-99.99,,,-99.99,,2013-10-21 07:02:00,
2013-10-21 02:11:00,37.0,34.0,-100.00,West,260,7.0,16.0,89,-99.99,,,-99.99,,2013-10-21 07:11:00,
2013-10-21 02:43:00,37.0,34.0,-100.00,West,260,7.0,16.0,89,-99.99,,,-99.99,,2013-10-21 07:43:00,
2013-10-21 02:52:00,37.0,34.0,-100.00,West,260,7.0,16.0,89,-99.99,,,-99.99,,2013-10-21 07:52:00,
2013-10-21 03:03:00,37.0,34.0,-100.00,West,260,7.0,16.0,89,-99.99,,,-99.99,,2013-10-21 08:03:00,
2013-10-21 03:10:00,37.0,34.0,-100.00,West,265,9.0,14.0,90,-99.99,,,-99.99,,2013-10-21 08:10:00,
2013-10-21 03:42:00,37.0,34.0,-100.00,West,265,9.0,14.0,90,-99.99,,,-99.99,,2013-10-21 08:42:00,
2013-10-21 03:52:00,37.0,34.0,-100.00,West,265,9.0,14.0,90,-99.99,,,-99.99,,2013-10-21 08:52:00,
2013-10-21 04:02:00,37.0,34.0,-100.00,West,265,9.0,14.0,90,-99.99,,,-99.99,,2013-10-21 09:02:00,
2013-10-21 04:43:00,37.0,35.0,-100.00,West,265,7.0,17.0,91,-99.99,,,-99.99,,2013-10-21 09:43:00,
2013-10-21 04:54:00,37.0,35.0,-100.00,West,265,7.0,17.0,91,-99.99,,,-99.99,,2013-10-21 09:54:00,
2013-10-21 05:03:00,37.0,35.0,-100.00,West,265,7.0,17.0,91,-99.99,,,-99.99,,2013-10-21 10:03:00,
2013-10-21 05:43:00,37.0,34.0,-100.00,West,265,9.0,16.0,89,-99.99,,,-99.99,,2013-10-21 10:43:00,
2013-10-21 05:52:00,37.0,34.0,-100.00,West,265,9.0,16.0,89,-99.99,,,-99.99,,2013-10-21 10:52:00,
2013-10-21 06:02:00,37.0,34.0,-100.00,West,265,9.0,16.0,89,-99.99,,,-99.99,,2013-10-21 11:02:00,
2013-10-21 06:42:00,36.0,33.0,-100.00,West,270,7.0,11.0,88,-99.99,,,-99.99,,2013-10-21 11:42:00,
2013-10-21 06:52:00,36.0,33.0,-100.00,West,270,7.0,11.0,88,-99.99,,,-99.99,,2013-10-21 11:52:00,
2013-10-21 07:01:00,36.0,33.0,-100.00,West,270,7.0,11.0,88,-99.99,,,-99.99,,2013-10-21 12:01:00,
2013-10-21 07:42:00,35.0,31.0,-100.00,West,270,7.0,14.0,84,-99.99,,,-99.99,,2013-10-21 12:42:00,
2013-10-21 07:52:00,35.0,31.0,-100.00,West,270,7.0,14.0,84,-99.99,,,-99.99,,2013-10-21 12:52:00,
2013-10-21 08:02:00,35.0,31.0,-100.00,West,270,7.0,14.0,84,-99.99,,,-99.99,,2013-10-21 13:02:00,
2013-10-21 08:42:00,35.0,30.0,-100.00,West,265,6.0,9.0,83,-99.99,,,-99.99,,2013-10-21 13:42:00,
2013-10-21 08:52:00,35.0,30.0,-100.00,West,265,6.0,9.0,83,-99.99,,,-99.99,,2013-10-21 13:52:00,
2013-10-21 09:02:00,35.0,30.0,-100.00,West,265,6.0,9.0,83,-99.99,,,-99.99,,2013-10-21 14:02:00,
2013-10-21 09:42:00,35.0,27.0,-100.00,West,275,11.0,19.0,75,-99.99,,,-99.99,,2013-10-21 14:42:00,
2013-10-21 09:52:00,35.0,27.0,-100.00,West,275,11.0,19.0,75,-99.99,,,-99.99,,2013-10-21 14:52:00,
2013-10-21 10:02:00,35.0,27.0,-100.00,West,275,11.0,19.0,75,-99.99,,,-99.99,,2013-10-21 15:02:00,
2013-10-21 10:43:00,34.0,25.0,-100.00,West,260,13.0,21.0,68,-99.99,,,-99.99,,2013-10-21 15:43:00,
2013-10-21 10:54:00,34.0,25.0,-100.00,West,260,13.0,21.0,68,-99.99,,,-99.99,,2013-10-21 15:54:00,
2013-10-21 11:03:00,34.0,25.0,-100.00,West,260,13.0,21.0,68,-99.99,,,-99.99,,2013-10-21 16:03:00,
2013-10-21 11:43:00,35.0,23.0,-100.00,West,265,11.0,18.0,62,-99.99,,,-99.99,,2013-10-21 16:43:00,
2013-10-21 11:54:00,35.0,23.0,-100.00,West,265,11.0,18.0,62,-99.99,,,-99.99,,2013-10-21 16:54:00,
2013-10-21 12:02:00,35.0,23.0,-100.00,West,265,11.0,18.0,62,-99.99,,,-99.99,,2013-10-21 17:02:00,
2013-10-21 12:43:00,35.0,19.0,-100.00,West,265,12.0,22.0,53,-99.99,,,-99.99,,2013-10-21 17:43:00,
2013-10-21 12:53:00,35.0,19.0,-100.00,West,265,12.0,22.0,53,-99.99,,,-99.99,,2013-10-21 17:53:00,
2013-10-21 13:02:00,35.0,19.0,-100.00,West,265,12.0,22.0,53,-99.99,,,-99.99,,2013-10-21 18:02:00,
2013-10-21 13:42:00,35.0,17.0,-100.00,West,270,12.0,22.0,47,-99.99,,,-99.99,,2013-10-21 18:42:00,
2013-10-21 13:52:00,35.0,17.0,-100.00,West,270,12.0,22.0,47,-99.99,,,-99.99,,2013-10-21 18:52:00,
2013-10-21 14:02:00,35.0,17.0,-100.00,West,270,12.0,22.0,47,-99.99,,,-99.99,,2013-10-21 19:02:00,
2013-10-21 14:42:00,35.0,16.0,-100.00,West,275,6.0,19.0,45,-99.99,,,-99.99,,2013-10-21 19:42:00,
2013-10-21 14:52:00,35.0,16.0,-100.00,West,275,6.0,19.0,45,-99.99,,,-99.99,,2013-10-21 19:52:00,
2013-10-21 15:02:00,35.0,16.0,-100.00,West,275,6.0,19.0,45,-99.99,,,-99.99,,2013-10-21 20:02:00,
2013-10-21 15:10:00,36.0,15.0,-100.00,West,260,12.0,22.0,42,-99.99,,,-99.99,,2013-10-21 20:10:00,
2013-10-21 15:43:00,36.0,15.0,-100.00,West,260,12.0,22.0,42,-99.99,,,-99.99,,2013-10-21 20:43:00,
2013-10-21 15:53:00,36.0,15.0,-100.00,West,260,12.0,22.0,42,-99.99,,,-99.99,,2013-10-21 20:53:00,
2013-10-21 16:03:00,36.0,15.0,-100.00,West,260,12.0,22.0,42,-99.99,,,-99.99,,2013-10-21 21:03:00,
2013-10-21 16:44:00,36.0,17.0,-100.00,West,260,9.0,20.0,47,-99.99,,,-99.99,,2013-10-21 21:44:00,
2013-10-21 16:54:00,36.0,17.0,-100.00,West,260,9.0,20.0,47,-99.99,,,-99.99,,2013-10-21 21:54:00,
2013-10-21 17:04:00,36.0,17.0,-100.00,West,260,9.0,20.0,47,-99.99,,,-99.99,,2013-10-21 22:04:00,
2013-10-21 17:44:00,35.0,17.0,-100.00,West,260,11.0,20.0,48,-99.99,,,-99.99,,2013-10-21 22:44:00,
2013-10-21 17:53:00,35.0,17.0,-100.00,West,260,11.0,20.0,48,-99.99,,,-99.99,,2013-10-21 22:53:00,
2013-10-21 18:03:00,35.0,17.0,-100.00,West,260,11.0,20.0,48,-99.99,,,-99.99,,2013-10-21 23:03:00,
2013-10-21 18:42:00,34.0,18.0,-100.00,WSW,240,7.0,17.0,50,-99.99,,,-99.99,,2013-10-21 23:42:00,
2013-10-21 18:53:00,34.0,18.0,-100.00,WSW,240,7.0,17.0,50,-99.99,,,-99.99,,2013-10-21 23:53:00,
2013-10-21 19:02:00,34.0,18.0,-100.00,WSW,240,7.0,17.0,50,-99.99,,,-99.99,,2013-10-22 00:02:00,
2013-10-21 19:42:00,33.0,19.0,-100.00,SW,235,6.0,17.0,56,-99.99,,,-99.99,,2013-10-22 00:42:00,
2013-10-21 19:53:00,33.0,19.0,-100.00,SW,235,6.0,17.0,56,-99.99,,,-99.99,,2013-10-22 00:53:00,
2013-10-21 20:03:00,33.0,19.0,-100.00,SW,235,6.0,17.0,56,-99.99,,,-99.99,,2013-10-22 01:03:00,
2013-10-21 20:42:00,34.0,19.0,-100.00,SW,230,7.0,13.0,54,-99.99,,,-99.99,,2013-10-22 01:42:00,
2013-10-21 20:53:00,34.0,19.0,-100.00,SW,230,7.0,13.0,54,-99.99,,,-99.99,,2013-10-22 01:53:00,
2013-10-21 21:02:00,34.0,19.0,-100.00,SW,230,7.0,13.0,54,-99.99,,,-99.99,,2013-10-22 02:02:00,
2013-10-21 21:43:00,33.0,18.0,-100.00,WSW,245,7.0,15.0,55,-99.99,,,-99.99,,2013-10-22 02:43:00,
2013-10-21 21:52:00,33.0,18.0,-100.00,WSW,245,7.0,15.0,55,-99.99,,,-99.99,,2013-10-22 02:52:00,
2013-10-21 22:03:00,33.0,18.0,-100.00,WSW,245,7.0,15.0,55,-99.99,,,-99.99,,2013-10-22 03:03:00,
2013-10-21 22:45:00,32.0,19.0,-100.00,SW,225,9.0,16.0,57,-99.99,,,-99.99,,2013-10-22 03:45:00,
2013-10-21 22:55:00,32.0,19.0,-100.00,SW,225,9.0,16.0,57,-99.99,,,-99.99,,2013-10-22 03:55:00,
2013-10-21 23:05:00,32.0,19.0,-100.00,SW,225,9.0,16.0,57,-99.99,,,-99.99,,2013-10-22 04:05:00,
2013-10-21 23:43:00,32.0,20.0,-100.00,SW,235,6.0,13.0,61,-99.99,,,-99.99,,2013-10-22 04:43:00,
2013-10-21 23:55:00,32.0,20.0,-100.00,SW,235,6.0,13.0,61,-99.99,,,-99.99,,2013-10-22 04:55:00,